createdAt,value
2019-05-06T16:51:48.549Z,8.61
2019-05-06T16:55:06.076Z,8.36
2019-05-06T16:56:07.657Z,8.35
2019-05-06T16:57:08.879Z,8.38
2019-05-06T16:58:08.747Z,8.31
2019-05-06T16:59:09.185Z,8.31
2019-05-06T17:00:28.949Z,8.31
2019-05-06T17:01:27.941Z,8.34
2019-05-06T17:02:32.891Z,8.38
2019-05-06T17:03:28.881Z,8.31
2019-05-06T17:04:32.784Z,8.35
2019-05-06T17:05:28.609Z,8.38
2019-05-06T17:06:29.071Z,8.26
2019-05-06T17:07:29.181Z,8.18
2019-05-06T17:08:29.316Z,8.16
2019-05-06T17:09:43.983Z,8.08
2019-05-06T17:10:45.846Z,8.05
2019-05-06T17:13:02.698Z,8.18
2019-05-06T17:19:24.156Z,7.9
2019-05-06T17:20:25.132Z,7.87
2019-05-06T17:21:27.768Z,7.75
2019-05-06T17:22:28.988Z,7.74
2019-05-06T17:26:43.406Z,8.5
2019-05-06T17:27:44.265Z,8.54
2019-05-06T17:28:44.382Z,8.31
2019-05-06T17:29:45.015Z,8.16
2019-05-06T17:30:45.131Z,8.09
2019-05-06T17:31:49.836Z,8.09
2019-05-06T17:32:49.117Z,8.05
2019-05-06T17:33:48.609Z,8.06
2019-05-06T17:34:48.316Z,8.03
2019-05-06T17:35:48.337Z,7.88
2019-05-06T17:36:49.030Z,7.96
2019-05-06T17:37:50.029Z,7.85
2019-05-06T17:38:53.752Z,7.93
2019-05-06T17:40:10.703Z,7.84
2019-05-06T17:40:54.362Z,7.84
2019-05-06T17:41:54.676Z,7.77
2019-05-06T17:42:54.114Z,7.75
2019-05-06T17:43:54.845Z,7.77
2019-05-06T17:44:54.845Z,7.75
2019-05-06T17:46:07.518Z,7.62
2019-05-06T17:46:56.058Z,7.62
2019-05-06T17:47:58.372Z,7.66
2019-05-06T17:48:58.632Z,7.62
2019-05-06T17:49:58.777Z,7.67
2019-05-06T17:50:57.997Z,7.75
2019-05-06T17:51:58.412Z,7.67
2019-05-06T17:52:59.755Z,7.81
2019-05-06T17:53:59.491Z,7.67
2019-05-06T17:54:59.742Z,7.67
2019-05-06T17:56:02.042Z,7.7
2019-05-06T17:57:04.830Z,7.67
2019-05-06T17:58:03.105Z,7.66
2019-05-06T17:59:03.485Z,7.56
2019-05-06T18:00:03.868Z,7.61
2019-05-06T18:01:03.644Z,7.62
2019-05-06T18:02:04.045Z,7.67
2019-05-06T18:03:05.069Z,7.59
2019-05-06T18:04:09.670Z,7.55
2019-05-06T18:05:08.928Z,7.59
2019-05-06T18:06:15.523Z,7.59
2019-05-06T18:07:07.946Z,7.56
2019-05-06T18:08:08.509Z,7.53
2019-05-06T18:09:08.919Z,7.56
2019-05-06T18:10:11.783Z,7.58
2019-05-06T18:11:12.670Z,7.55
2019-05-06T18:12:12.442Z,7.43
2019-05-06T18:13:13.178Z,7.51
2019-05-06T18:14:12.946Z,7.53
2019-05-06T18:15:13.728Z,7.47
2019-05-06T18:16:14.136Z,7.43
2019-05-06T18:17:14.828Z,7.46
2019-05-06T18:18:14.850Z,7.46
2019-05-06T18:19:18.069Z,7.44
2019-05-06T18:20:18.122Z,7.46
2019-05-06T18:21:18.213Z,7.47
2019-05-06T18:22:18.697Z,7.46
2019-05-06T18:23:19.114Z,7.48
2019-05-06T18:24:19.232Z,7.46
2019-05-06T18:25:19.929Z,7.37
2019-05-06T18:26:23.385Z,7.44
2019-05-06T18:27:22.920Z,7.39
2019-05-06T18:28:23.075Z,7.32
2019-05-06T18:29:22.907Z,7.32
2019-05-06T18:30:37.085Z,7.37
2019-05-06T18:31:24.645Z,7.36
2019-05-06T18:32:25.624Z,7.41
2019-05-06T18:33:25.728Z,7.32
2019-05-06T18:34:29.163Z,7.39
2019-05-06T18:35:28.847Z,7.47
2019-05-06T18:36:28.615Z,7.46
2019-05-06T18:37:29.234Z,7.41
2019-05-06T18:38:29.450Z,7.44
2019-05-06T18:39:29.863Z,7.43
2019-05-06T18:40:33.644Z,7.56
2019-05-06T18:41:33.115Z,7.46
2019-05-06T18:42:33.886Z,7.59
2019-05-06T18:43:33.674Z,7.59
2019-05-06T18:44:33.832Z,7.58
2019-05-06T18:45:33.710Z,7.61
2019-05-06T18:46:33.695Z,7.69
2019-05-06T18:47:34.104Z,7.59
2019-05-06T18:48:38.227Z,7.55
2019-05-06T18:49:34.380Z,7.61
2019-05-06T18:50:34.779Z,7.59
2019-05-06T18:51:34.899Z,7.61
2019-05-06T18:52:37.703Z,7.55
2019-05-06T18:53:38.942Z,7.61
2019-05-06T18:54:39.457Z,7.56
2019-05-06T18:55:38.873Z,7.62
2019-05-06T18:56:38.282Z,7.61
2019-05-06T18:57:38.604Z,7.61
2019-05-06T18:58:39.261Z,7.53
2019-05-06T18:59:42.988Z,7.48
2019-05-06T19:00:40.562Z,7.47
2019-05-06T19:01:43.574Z,7.44
2019-05-06T19:02:42.632Z,7.41
2019-05-06T19:03:43.346Z,7.43
2019-05-06T19:04:43.754Z,7.33
2019-05-06T19:05:44.453Z,7.32
2019-05-06T19:06:44.876Z,7.41
2019-05-06T19:07:47.534Z,7.33
2019-05-06T19:08:47.757Z,7.31
2019-05-06T19:09:47.957Z,7.29
2019-05-06T19:10:47.945Z,7.26
2019-05-06T19:11:47.516Z,7.25
2019-05-06T19:12:48.175Z,7.22
2019-05-06T19:13:48.861Z,7.07
2019-05-06T19:14:49.530Z,7.11
2019-05-06T19:15:49.931Z,7.1
2019-05-06T19:16:57.248Z,7.01
2019-05-06T19:17:53.265Z,6.97
2019-05-06T19:18:52.670Z,7.03
2019-05-06T19:19:52.733Z,6.87
2019-05-06T19:20:53.419Z,6.9
2019-05-06T19:21:54.144Z,6.89
2019-05-06T19:22:54.255Z,6.9
2019-05-06T19:23:55.479Z,6.87
2019-05-06T19:24:57.788Z,6.89
2019-05-06T19:25:57.420Z,6.85
2019-05-06T19:26:58.236Z,6.8
2019-05-06T19:27:58.928Z,6.87
2019-05-06T19:28:58.754Z,6.85
2019-05-06T19:30:02.658Z,6.85
2019-05-06T19:30:59.696Z,6.86
2019-05-06T19:31:59.113Z,6.86
2019-05-06T19:32:59.242Z,6.85
2019-05-06T19:34:00.511Z,6.86
2019-05-06T19:35:03.303Z,6.87
2019-05-06T19:36:03.706Z,6.83
2019-05-06T19:37:02.722Z,6.8
2019-05-06T19:38:05.356Z,6.85
2019-05-06T19:39:05.169Z,6.82
2019-05-06T19:40:03.572Z,6.83
2019-05-06T19:41:06.130Z,6.83
2019-05-06T19:42:05.735Z,6.83
2019-05-06T19:43:03.991Z,6.82
2019-05-06T19:44:04.109Z,6.82
2019-05-06T19:45:05.116Z,6.8
2019-05-06T19:46:05.519Z,6.74
2019-05-06T19:47:08.306Z,6.72
2019-05-06T19:48:08.700Z,6.74
2019-05-06T19:49:07.653Z,6.72
2019-05-06T19:50:08.934Z,6.7
2019-05-06T19:51:09.874Z,6.7
2019-05-06T19:52:10.823Z,6.59
2019-05-06T19:53:12.140Z,6.67
2019-05-06T19:54:12.972Z,6.53
2019-05-06T19:55:12.693Z,6.56
2019-05-06T19:56:12.952Z,6.59
2019-05-06T19:57:16.470Z,6.5
2019-05-06T19:58:13.572Z,6.5
2019-05-06T19:59:14.101Z,6.52
2019-05-06T20:00:14.233Z,6.52
2019-05-06T20:01:14.359Z,6.53
2019-05-06T20:02:14.479Z,6.46
2019-05-06T20:03:14.673Z,6.43
2019-05-06T20:04:15.082Z,6.44
2019-05-06T20:05:17.842Z,6.47
2019-05-06T20:06:18.425Z,6.49
2019-05-06T20:07:19.099Z,6.47
2019-05-06T20:08:18.268Z,6.5
2019-05-06T20:09:18.391Z,6.43
2019-05-06T20:10:18.509Z,6.39
2019-05-06T20:11:18.936Z,6.41
2019-05-06T20:12:19.047Z,6.49
2019-05-06T20:13:23.596Z,6.49
2019-05-06T20:14:22.292Z,6.44
2019-05-06T20:15:20.697Z,6.47
2019-05-06T20:16:22.885Z,6.39
2019-05-06T20:17:22.909Z,6.36
2019-05-06T20:18:22.331Z,6.41
2019-05-06T20:19:35.870Z,6.35
2019-05-06T20:20:23.489Z,6.43
2019-05-06T20:21:23.418Z,6.43
2019-05-06T20:22:23.839Z,6.38
2019-05-06T20:23:23.954Z,6.31
2019-05-06T20:24:24.403Z,6.28
2019-05-06T20:25:24.807Z,6.25
2019-05-06T20:26:27.411Z,6.19
2019-05-06T20:27:25.832Z,6.2
2019-05-06T20:28:28.702Z,6.2
2019-05-06T20:29:27.912Z,6.2
2019-05-06T20:30:27.767Z,6.22
2019-05-06T20:31:28.498Z,6.2
2019-05-06T20:32:28.611Z,6.26
2019-05-06T20:33:29.300Z,6.13
2019-05-06T20:34:32.281Z,6.2
2019-05-06T20:35:32.382Z,6.1
2019-05-06T20:36:33.742Z,6.17
2019-05-06T20:37:33.245Z,6.12
2019-05-06T20:38:33.907Z,6.09
2019-05-06T20:39:32.843Z,6.07
2019-05-06T20:40:33.835Z,6.05
2019-05-06T20:41:33.955Z,6.05
2019-05-06T20:42:34.091Z,6.12
2019-05-06T20:43:34.201Z,6.06
2019-05-06T20:44:34.598Z,6.07
2019-05-06T20:45:42.440Z,6.05
2019-05-06T20:46:34.894Z,6.01
2019-05-06T20:47:37.962Z,5.98
2019-05-06T20:48:38.335Z,6.01
2019-05-06T20:49:39.116Z,6.09
2019-05-06T20:50:38.139Z,6.02
2019-05-06T20:51:38.534Z,6.02
2019-05-06T20:52:38.938Z,5.99
2019-05-06T20:53:39.328Z,5.92
2019-05-06T20:54:39.717Z,6.06
2019-05-06T20:55:44.035Z,6.05
2019-05-06T20:56:42.751Z,6.07
2019-05-06T20:57:42.868Z,6.06
2019-05-06T20:58:42.983Z,6.05
2019-05-06T20:59:43.922Z,5.92
2019-05-06T21:00:44.034Z,5.97
2019-05-06T21:01:44.740Z,6.06
2019-05-06T21:02:45.229Z,5.99
2019-05-06T21:03:47.866Z,6.02
2019-05-06T21:04:48.808Z,6.02
2019-05-06T21:05:49.346Z,6.06
2019-05-06T21:06:48.490Z,5.97
2019-05-06T21:07:48.934Z,5.91
2019-05-06T21:08:49.045Z,5.91
2019-05-06T21:09:52.322Z,5.9
2019-05-06T21:10:53.247Z,5.95
2019-05-06T21:11:53.106Z,6.06
2019-05-06T21:12:53.545Z,6.1
2019-05-06T21:13:52.955Z,5.91
2019-05-06T21:14:53.353Z,6.01
2019-05-06T21:15:53.477Z,5.91
2019-05-06T21:16:54.120Z,5.92
2019-05-06T21:17:53.816Z,5.97
2019-05-06T21:18:54.683Z,5.92
2019-05-06T21:19:57.638Z,5.9
2019-05-06T21:20:55.726Z,5.95
2019-05-06T21:21:58.424Z,5.92
2019-05-06T21:22:58.315Z,5.95
2019-05-06T21:23:58.217Z,5.94
2019-05-06T21:24:57.650Z,5.99
2019-05-06T21:25:58.529Z,5.95
2019-05-06T21:26:58.963Z,5.91
2019-05-06T21:27:58.721Z,5.9
2019-05-06T21:28:59.114Z,5.9
2019-05-06T21:29:59.361Z,5.84
2019-05-06T21:30:59.790Z,5.8
2019-05-06T21:32:02.991Z,5.9
2019-05-06T21:33:01.388Z,5.83
2019-05-06T21:34:02.568Z,5.8
2019-05-06T21:35:02.981Z,5.84
2019-05-06T21:36:03.481Z,5.94
2019-05-06T21:37:03.898Z,5.92
2019-05-06T21:38:05.168Z,5.9
2019-05-06T21:39:07.481Z,5.98
2019-05-06T21:40:08.087Z,5.94
2019-05-06T21:41:07.578Z,5.94
2019-05-06T21:42:07.575Z,5.94
2019-05-06T21:43:08.117Z,5.9
2019-05-06T21:44:07.983Z,6.06
2019-05-06T21:45:08.747Z,5.98
2019-05-06T21:46:08.860Z,6.02
2019-05-06T21:47:08.977Z,5.91
2019-05-06T21:48:09.092Z,5.92
2019-05-06T21:49:09.204Z,5.98
2019-05-06T21:50:12.549Z,5.87
2019-05-06T21:51:13.052Z,6.02
2019-05-06T21:52:13.408Z,5.91
2019-05-06T21:53:14.947Z,5.87
2019-05-06T21:54:13.017Z,5.84
2019-05-06T21:55:13.931Z,5.99
2019-05-06T21:56:13.734Z,5.97
2019-05-06T21:57:13.863Z,5.9
2019-05-06T21:58:13.986Z,5.95
2019-05-06T21:59:14.404Z,5.88
2019-05-06T22:00:17.603Z,5.88
2019-05-06T22:01:15.688Z,5.84
2019-05-06T22:02:17.777Z,5.88
2019-05-06T22:03:19.316Z,5.88
2019-05-06T22:04:18.981Z,5.92
2019-05-06T22:05:19.193Z,5.81
2019-05-06T22:06:19.352Z,5.8
2019-05-06T22:07:20.021Z,5.8
2019-05-06T22:08:23.728Z,5.72
2019-05-06T22:09:22.874Z,5.79
2019-05-06T22:10:25.063Z,5.79
2019-05-06T22:11:24.668Z,5.83
2019-05-06T22:12:24.768Z,5.8
2019-05-06T22:13:23.391Z,5.73
2019-05-06T22:14:23.806Z,5.76
2019-05-06T22:15:24.491Z,5.7
2019-05-06T22:16:25.212Z,5.69
2019-05-06T22:17:28.557Z,5.72
2019-05-06T22:18:31.217Z,5.73
2019-05-06T22:19:27.066Z,5.7
2019-05-06T22:20:29.570Z,5.64
2019-05-06T22:21:28.669Z,5.67
2019-05-06T22:22:28.972Z,5.72
2019-05-06T22:23:29.371Z,5.76
2019-05-06T22:24:29.817Z,5.67
2019-05-06T22:25:32.853Z,5.7
2019-05-06T22:26:33.069Z,5.73
2019-05-06T22:27:32.485Z,5.72
2019-05-06T22:28:32.541Z,5.73
2019-05-06T22:29:33.359Z,5.67
2019-05-06T22:30:33.299Z,5.69
2019-05-06T22:31:33.705Z,5.69
2019-05-06T22:32:34.681Z,5.74
2019-05-06T22:33:34.794Z,5.67
2019-05-06T22:34:35.502Z,5.61
2019-05-06T22:35:37.922Z,5.61
2019-05-06T22:36:37.775Z,5.56
2019-05-06T22:37:38.923Z,5.59
2019-05-06T22:38:37.796Z,5.61
2019-05-06T22:39:39.724Z,5.62
2019-05-06T22:40:38.880Z,5.64
2019-05-06T22:41:38.990Z,5.56
2019-05-06T22:42:40.014Z,5.61
2019-05-06T22:43:42.943Z,5.64
2019-05-06T22:44:43.204Z,5.62
2019-05-06T22:45:43.151Z,5.59
2019-05-06T22:46:43.130Z,5.64
2019-05-06T22:47:42.834Z,5.59
2019-05-06T22:48:43.707Z,5.59
2019-05-06T22:49:43.830Z,5.65
2019-05-06T22:50:44.099Z,5.61
2019-05-06T22:51:44.508Z,5.64
2019-05-06T22:52:47.470Z,5.69
2019-05-06T22:53:48.003Z,5.72
2019-05-06T22:54:48.846Z,5.72
2019-05-06T22:55:48.631Z,5.7
2019-05-06T22:56:47.743Z,5.72
2019-05-06T22:57:48.659Z,5.7
2019-05-06T22:58:49.065Z,5.69
2019-05-06T22:59:49.763Z,5.64
2019-05-06T23:00:50.518Z,5.61
2019-05-06T23:01:54.923Z,5.65
2019-05-06T23:02:53.401Z,5.62
2019-05-06T23:03:53.163Z,5.56
2019-05-06T23:04:54.143Z,5.64
2019-05-06T23:05:54.555Z,5.59
2019-05-06T23:06:54.942Z,5.58
2019-05-06T23:07:55.057Z,5.52
2019-05-06T23:08:58.091Z,5.62
2019-05-06T23:09:57.929Z,5.61
2019-05-06T23:10:58.604Z,5.55
2019-05-06T23:11:58.299Z,5.62
2019-05-06T23:12:58.726Z,5.61
2019-05-06T23:13:59.394Z,5.61
2019-05-06T23:14:59.510Z,5.64
2019-05-06T23:16:02.485Z,5.65
2019-05-06T23:17:03.125Z,5.62
2019-05-06T23:18:02.892Z,5.64
2019-05-06T23:19:02.740Z,5.59
2019-05-06T23:20:02.851Z,5.54
2019-05-06T23:21:03.502Z,5.58
2019-05-06T23:22:04.891Z,5.49
2019-05-06T23:23:05.275Z,5.55
2019-05-06T23:24:04.834Z,5.59
2019-05-06T23:25:07.666Z,5.52
2019-05-06T23:26:07.729Z,5.56
2019-05-06T23:27:07.914Z,5.46
2019-05-06T23:28:08.611Z,5.44
2019-05-06T23:29:08.354Z,5.43
2019-05-06T23:30:09.024Z,5.43
2019-05-06T23:31:09.102Z,5.44
2019-05-06T23:32:13.561Z,5.37
2019-05-06T23:33:13.975Z,5.38
2019-05-06T23:34:12.854Z,5.38
2019-05-06T23:35:13.446Z,5.4
2019-05-06T23:36:12.378Z,5.33
2019-05-06T23:37:13.232Z,5.34
2019-05-06T23:38:12.643Z,5.33
2019-05-06T23:39:13.255Z,5.33
2019-05-06T23:40:13.365Z,5.26
2019-05-06T23:41:14.015Z,5.26
2019-05-06T23:42:14.131Z,5.28
2019-05-06T23:43:15.104Z,5.26
2019-05-06T23:44:15.770Z,5.36
2019-05-06T23:45:17.889Z,5.37
2019-05-06T23:46:17.885Z,5.34
2019-05-06T23:47:18.390Z,5.31
2019-05-06T23:48:17.620Z,5.31
2019-05-06T23:49:18.757Z,5.34
2019-05-06T23:50:18.163Z,5.43
2019-05-06T23:51:19.106Z,5.29
2019-05-06T23:52:19.509Z,5.46
2019-05-06T23:53:19.757Z,5.36
2019-05-06T23:54:22.321Z,5.44
2019-05-06T23:55:22.348Z,5.41
2019-05-06T23:56:22.761Z,5.36
2019-05-06T23:57:25.516Z,5.4
2019-05-06T23:58:25.154Z,5.36
2019-05-06T23:59:25.506Z,5.44
